createdAt,value
2018-09-06T00:00:50.976Z,31.97
2018-09-06T00:03:18.638Z,32.60
2018-09-06T00:05:46.277Z,33.83
2018-09-06T00:08:13.922Z,33.70
2018-09-06T00:10:41.549Z,30.37
2018-09-06T00:13:09.613Z,29.03
2018-09-06T00:15:37.214Z,30.67
2018-09-06T00:18:04.953Z,27.97
2018-09-06T00:20:32.595Z,31.90
2018-09-06T00:23:00.269Z,32.33
2018-09-06T00:25:27.860Z,34.30
2018-09-06T00:27:55.506Z,31.70
2018-09-06T00:30:23.206Z,32.07
2018-09-06T00:32:50.830Z,33.40
2018-09-06T00:35:18.421Z,28.90
2018-09-06T00:37:46.065Z,28.20
2018-09-06T00:40:14.570Z,30.80
2018-09-06T00:42:42.349Z,32.10
2018-09-06T00:45:09.949Z,33.17
2018-09-06T00:47:37.686Z,32.73
2018-09-06T00:50:09.905Z,33.20
2018-09-06T00:52:37.517Z,33.07
2018-09-06T00:55:05.956Z,32.00
2018-09-06T00:57:33.560Z,34.40
2018-09-06T01:00:01.210Z,31.03
2018-09-06T01:02:28.817Z,33.07
2018-09-06T01:04:56.553Z,29.30
2018-09-06T01:07:24.128Z,31.07
2018-09-06T01:09:51.825Z,29.73
2018-09-06T01:12:19.453Z,27.60
2018-09-06T01:14:47.096Z,27.40
2018-09-06T01:17:14.676Z,25.03
2018-09-06T01:19:43.048Z,27.93
2018-09-06T01:22:10.636Z,25.20
2018-09-06T01:24:38.480Z,25.40
2018-09-06T01:27:06.731Z,23.87
2018-09-06T01:29:34.332Z,22.57
2018-09-06T01:32:02.664Z,23.17
2018-09-06T01:34:30.289Z,24.83
2018-09-06T01:36:57.964Z,23.03
2018-09-06T01:39:26.125Z,25.40
2018-09-06T01:41:53.729Z,26.17
2018-09-06T01:44:21.570Z,25.47
2018-09-06T01:46:49.161Z,25.70
2018-09-06T01:49:16.792Z,26.67
2018-09-06T01:51:44.380Z,24.87
2018-09-06T01:54:12.968Z,26.20
2018-09-06T01:56:40.568Z,25.90
2018-09-06T01:59:08.193Z,25.10
2018-09-06T02:01:35.832Z,24.57
2018-09-06T02:04:03.461Z,23.07
2018-09-06T02:06:32.101Z,23.20
2018-09-06T02:08:59.844Z,24.97
2018-09-06T02:11:27.441Z,23.57
2018-09-06T02:13:55.090Z,23.83
2018-09-06T02:16:22.663Z,24.40
2018-09-06T02:18:50.304Z,22.70
2018-09-06T02:21:17.985Z,22.30
2018-09-06T02:23:45.588Z,23.87
2018-09-06T02:26:13.208Z,26.27
2018-09-06T02:28:40.849Z,24.90
2018-09-06T02:31:08.475Z,22.70
2018-09-06T02:33:36.068Z,22.70
2018-09-06T02:36:03.710Z,23.00
2018-09-06T02:38:31.286Z,21.60
2018-09-06T02:40:59.700Z,22.43
2018-09-06T02:43:27.273Z,21.20
2018-09-06T02:45:54.899Z,19.70
2018-09-06T02:48:27.017Z,20.43
2018-09-06T02:51:00.303Z,20.20
2018-09-06T02:53:31.276Z,20.73
2018-09-06T02:55:58.940Z,19.27
2018-09-06T02:58:26.515Z,18.43
2018-09-06T03:00:54.178Z,16.67
2018-09-06T03:03:21.755Z,17.07
2018-09-06T03:05:49.374Z,17.33
2018-09-06T03:08:16.952Z,17.03
2018-09-06T03:10:46.312Z,16.17
2018-09-06T03:13:13.909Z,17.20
2018-09-06T03:15:41.597Z,18.80
2018-09-06T03:18:09.198Z,16.70
2018-09-06T03:20:37.010Z,17.70
2018-09-06T03:23:05.272Z,16.87
2018-09-06T03:25:33.049Z,16.17
2018-09-06T03:28:01.803Z,15.93
2018-09-06T03:30:31.372Z,16.27
2018-09-06T03:32:58.944Z,17.70
2018-09-06T03:35:26.549Z,17.80
2018-09-06T03:37:54.179Z,16.90
2018-09-06T03:40:22.825Z,16.33
2018-09-06T03:42:50.444Z,15.40
2018-09-06T03:45:18.039Z,16.63
2018-09-06T03:47:45.663Z,15.80
2018-09-06T03:50:14.324Z,16.57
2018-09-06T03:52:41.912Z,15.50
2018-09-06T03:55:09.560Z,15.13
2018-09-06T03:57:37.212Z,16.30
2018-09-06T04:00:05.145Z,17.10
2018-09-06T04:02:33.740Z,16.87
2018-09-06T04:05:01.320Z,16.40
2018-09-06T04:07:28.993Z,15.47
2018-09-06T04:09:56.617Z,15.87
2018-09-06T04:12:24.268Z,13.17
2018-09-06T04:14:51.921Z,14.27
2018-09-06T04:17:19.485Z,13.40
2018-09-06T04:19:47.061Z,15.97
2018-09-06T04:22:14.669Z,15.60
2018-09-06T04:24:42.256Z,15.10
2018-09-06T04:27:09.850Z,15.43
2018-09-06T04:29:37.481Z,14.07
2018-09-06T04:32:05.168Z,13.57
2018-09-06T04:34:32.731Z,13.30
2018-09-06T04:37:00.316Z,14.83
2018-09-06T04:39:27.888Z,11.87
2018-09-06T04:41:55.478Z,17.37
2018-09-06T04:44:23.064Z,11.83
2018-09-06T04:46:51.536Z,12.00
2018-09-06T04:49:19.594Z,14.67
2018-09-06T04:51:47.994Z,13.73
2018-09-06T04:54:15.732Z,10.53
2018-09-06T04:56:43.321Z,10.10
2018-09-06T04:59:10.889Z,11.60
2018-09-06T05:01:38.796Z,11.40
2018-09-06T05:04:06.658Z,11.70
2018-09-06T05:06:34.366Z,12.37
2018-09-06T05:09:02.183Z,11.00
2018-09-06T05:11:29.825Z,13.70
2018-09-06T05:13:57.476Z,11.73
2018-09-06T05:16:25.116Z,14.70
2018-09-06T05:18:52.693Z,12.77
2018-09-06T05:21:20.272Z,13.87
2018-09-06T05:23:47.856Z,16.17
2018-09-06T05:26:15.447Z,11.00
2018-09-06T05:28:43.054Z,12.37
2018-09-06T05:31:10.679Z,12.37
2018-09-06T05:33:39.344Z,11.30
2018-09-06T05:36:06.990Z,12.33
2018-09-06T05:38:34.551Z,14.00
2018-09-06T05:41:02.152Z,15.07
2018-09-06T05:43:29.717Z,15.53
2018-09-06T05:45:57.337Z,16.30
2018-09-06T05:48:24.912Z,16.80
2018-09-06T05:50:52.493Z,15.97
2018-09-06T05:53:20.087Z,17.70
2018-09-06T05:55:47.769Z,16.93
2018-09-06T05:58:15.413Z,17.27
2018-09-06T06:00:47.105Z,19.13
2018-09-06T06:03:14.716Z,17.53
2018-09-06T06:05:42.309Z,16.93
2018-09-06T06:08:21.332Z,18.27
2018-09-06T06:10:48.981Z,16.90
2018-09-06T06:13:16.689Z,18.30
2018-09-06T06:15:44.317Z,18.57
2018-09-06T06:18:11.916Z,17.57
2018-09-06T06:20:39.785Z,17.50
2018-09-06T06:23:07.401Z,17.77
2018-09-06T06:25:35.026Z,17.53
2018-09-06T06:28:02.635Z,17.30
2018-09-06T06:30:30.235Z,15.60
2018-09-06T06:32:57.829Z,14.00
2018-09-06T06:35:25.480Z,12.17
2018-09-06T06:37:53.093Z,13.97
2018-09-06T06:40:20.680Z,13.33
2018-09-06T06:42:48.295Z,11.10
2018-09-06T06:45:15.877Z,11.60
2018-09-06T06:47:43.497Z,11.97
2018-09-06T06:50:11.170Z,12.10
2018-09-06T06:52:38.756Z,13.20
2018-09-06T06:55:06.544Z,12.70
2018-09-06T06:57:34.136Z,12.93
2018-09-06T07:00:01.747Z,14.90
2018-09-06T07:02:29.430Z,14.70
2018-09-06T07:04:57.012Z,13.37
2018-09-06T07:07:24.581Z,13.67
2018-09-06T07:09:52.245Z,13.87
2018-09-06T07:12:19.824Z,13.93
2018-09-06T07:14:47.384Z,12.33
2018-09-06T07:17:14.956Z,14.07
2018-09-06T07:19:42.511Z,13.13
2018-09-06T07:22:10.096Z,14.23
2018-09-06T07:24:37.677Z,13.90
2018-09-06T07:27:05.420Z,12.57
2018-09-06T07:29:32.988Z,13.00
2018-09-06T07:32:00.592Z,13.17
2018-09-06T07:34:28.197Z,12.90
2018-09-06T07:36:55.777Z,13.13
2018-09-06T07:39:23.353Z,11.83
2018-09-06T07:41:50.970Z,11.27
2018-09-06T07:44:18.576Z,11.97
2018-09-06T07:46:46.147Z,12.43
2018-09-06T07:49:13.754Z,11.63
2018-09-06T07:51:41.331Z,12.20
2018-09-06T07:54:08.892Z,11.67
2018-09-06T07:56:36.481Z,12.37
2018-09-06T07:59:04.097Z,12.87
2018-09-06T08:01:31.722Z,13.37
2018-09-06T08:03:59.326Z,12.27
2018-09-06T08:06:27.996Z,13.10
2018-09-06T08:08:55.573Z,12.37
2018-09-06T08:11:23.125Z,11.87
2018-09-06T08:13:50.733Z,11.93
2018-09-06T08:16:18.372Z,11.40
2018-09-06T08:18:45.977Z,13.80
2018-09-06T08:21:13.527Z,11.87
2018-09-06T08:23:41.103Z,12.90
2018-09-06T08:26:08.716Z,12.97
2018-09-06T08:28:36.297Z,12.00
2018-09-06T08:31:03.990Z,11.10
2018-09-06T08:33:31.474Z,11.63
2018-09-06T08:35:59.069Z,12.17
2018-09-06T08:38:26.644Z,12.20
2018-09-06T08:40:54.209Z,12.50
2018-09-06T08:43:21.796Z,11.70
2018-09-06T08:45:49.388Z,10.87
2018-09-06T08:48:16.968Z,10.80
2018-09-06T08:50:45.552Z,11.50
2018-09-06T08:53:13.137Z,11.83
2018-09-06T08:55:40.704Z,12.13
2018-09-06T08:58:08.283Z,11.80
2018-09-06T09:00:37.195Z,10.70
2018-09-06T09:03:05.671Z,11.63
2018-09-06T09:05:33.310Z,11.60
2018-09-06T09:08:00.879Z,11.93
2018-09-06T09:10:28.504Z,11.40
2018-09-06T09:12:56.111Z,10.37
2018-09-06T09:15:23.660Z,11.00
2018-09-06T09:17:51.325Z,10.80
2018-09-06T09:20:18.945Z,12.00
2018-09-06T09:22:46.560Z,11.37
2018-09-06T09:25:14.176Z,10.47
2018-09-06T09:27:42.996Z,10.37
2018-09-06T09:30:10.632Z,10.10
2018-09-06T09:32:38.192Z,10.90
2018-09-06T09:35:05.910Z,11.60
2018-09-06T09:37:33.645Z,12.07
2018-09-06T09:40:01.520Z,10.70
2018-09-06T09:42:29.085Z,10.30
2018-09-06T09:44:56.692Z,10.50
2018-09-06T09:49:51.787Z,10.83
2018-09-06T09:54:47.129Z,10.70
2018-09-06T09:57:14.893Z,10.43
2018-09-06T09:59:42.483Z,10.90
2018-09-06T10:02:15.649Z,10.40
2018-09-06T10:05:46.912Z,9.50
2018-09-06T10:08:20.196Z,9.67
2018-09-06T10:10:47.813Z,10.70
2018-09-06T10:13:15.526Z,9.20
2018-09-06T10:15:43.320Z,10.20
2018-09-06T10:18:10.941Z,10.00
2018-09-06T10:20:39.028Z,9.97
2018-09-06T10:23:06.660Z,9.70
2018-09-06T10:25:34.310Z,10.77
2018-09-06T10:28:02.645Z,10.07
2018-09-06T10:30:30.276Z,10.80
2018-09-06T10:32:57.956Z,9.57
2018-09-06T10:35:25.625Z,10.63
2018-09-06T10:37:53.177Z,10.23
2018-09-06T10:40:20.785Z,10.30
2018-09-06T10:42:48.392Z,11.13
2018-09-06T10:45:16.036Z,10.87
2018-09-06T10:47:43.636Z,10.10
2018-09-06T10:50:11.272Z,9.70
2018-09-06T10:52:38.852Z,9.90
2018-09-06T10:55:06.449Z,10.77
2018-09-06T10:57:34.026Z,10.80
2018-09-06T11:00:01.617Z,10.77
2018-09-06T11:02:29.377Z,10.57
2018-09-06T11:04:56.980Z,10.70
2018-09-06T11:07:24.613Z,10.27
2018-09-06T11:09:52.181Z,9.70
2018-09-06T11:12:20.725Z,10.30
2018-09-06T11:14:48.309Z,12.40
2018-09-06T11:17:15.868Z,10.27
2018-09-06T11:19:43.467Z,10.37
2018-09-06T11:22:11.254Z,10.60
2018-09-06T11:24:38.727Z,11.80
2018-09-06T11:27:06.337Z,10.83
2018-09-06T11:29:34.010Z,10.40
2018-09-06T11:32:01.611Z,12.03
2018-09-06T11:34:29.240Z,11.63
2018-09-06T11:36:56.857Z,9.77
2018-09-06T11:39:24.460Z,11.57
2018-09-06T11:41:52.109Z,10.97
2018-09-06T11:44:19.725Z,10.70
2018-09-06T11:46:47.417Z,11.97
2018-09-06T11:49:14.980Z,11.10
2018-09-06T11:51:42.657Z,11.80
2018-09-06T11:54:10.832Z,11.43
2018-09-06T11:56:38.434Z,10.57
2018-09-06T11:59:06.053Z,12.03
2018-09-06T12:01:33.701Z,10.00
2018-09-06T12:04:01.396Z,11.87
2018-09-06T12:06:28.990Z,11.17
2018-09-06T12:08:56.596Z,10.37
2018-09-06T12:11:24.308Z,10.10
2018-09-06T12:13:52.026Z,9.33
2018-09-06T12:16:19.615Z,10.00
2018-09-06T12:18:47.804Z,10.90
2018-09-06T12:21:15.446Z,10.57
2018-09-06T12:23:43.089Z,10.10
2018-09-06T12:26:10.705Z,11.00
2018-09-06T12:28:38.312Z,9.90
2018-09-06T12:31:05.885Z,10.20
2018-09-06T12:33:33.693Z,10.53
2018-09-06T12:36:01.686Z,10.50
2018-09-06T12:38:30.088Z,11.17
2018-09-06T12:40:58.515Z,9.30
2018-09-06T12:43:26.177Z,10.40
2018-09-06T12:45:53.832Z,9.33
2018-09-06T12:48:21.419Z,8.90
2018-09-06T12:50:50.251Z,9.60
2018-09-06T12:53:17.843Z,9.27
2018-09-06T12:55:45.396Z,9.87
2018-09-06T12:58:12.998Z,9.57
2018-09-06T13:00:40.637Z,8.97
2018-09-06T13:03:08.248Z,9.63
2018-09-06T13:05:35.813Z,9.90
2018-09-06T13:08:03.483Z,9.20
2018-09-06T13:10:31.024Z,8.50
2018-09-06T13:12:58.647Z,9.33
2018-09-06T13:15:26.217Z,8.33
2018-09-06T13:17:53.883Z,8.67
2018-09-06T13:20:21.457Z,8.03
2018-09-06T13:22:49.056Z,8.97
2018-09-06T13:25:16.628Z,8.20
2018-09-06T13:27:44.223Z,7.73
2018-09-06T13:30:11.800Z,8.83
2018-09-06T13:32:39.376Z,8.17
2018-09-06T13:35:07.143Z,8.43
2018-09-06T13:37:35.769Z,10.03
2018-09-06T13:40:03.580Z,8.97
2018-09-06T13:42:31.178Z,8.50
2018-09-06T13:44:58.769Z,8.27
2018-09-06T13:47:27.407Z,8.43
2018-09-06T13:49:55.000Z,9.20
2018-09-06T13:52:22.596Z,8.77
2018-09-06T13:54:50.772Z,8.60
2018-09-06T13:57:18.342Z,8.90
2018-09-06T13:59:45.913Z,8.67
2018-09-06T14:02:13.529Z,9.37
2018-09-06T14:04:41.115Z,9.63
2018-09-06T14:07:08.781Z,9.30
2018-09-06T14:09:36.389Z,8.43
2018-09-06T14:12:04.733Z,8.27
2018-09-06T14:14:32.432Z,8.93
2018-09-06T14:17:00.620Z,8.40
2018-09-06T14:19:28.188Z,7.93
2018-09-06T14:21:55.793Z,8.50
2018-09-06T14:24:23.353Z,8.40
2018-09-06T14:26:50.948Z,8.37
2018-09-06T14:29:18.516Z,8.00
2018-09-06T14:31:46.177Z,8.13
2018-09-06T14:34:13.748Z,7.80
2018-09-06T14:36:41.328Z,8.83
2018-09-06T14:39:09.065Z,8.57
2018-09-06T14:41:36.829Z,9.30
2018-09-06T14:44:04.465Z,9.27
2018-09-06T14:46:32.018Z,9.17
2018-09-06T14:48:59.593Z,9.03
2018-09-06T14:51:27.214Z,9.37
2018-09-06T14:53:54.764Z,7.83
2018-09-06T14:56:22.509Z,7.97
2018-09-06T14:58:50.074Z,8.70
2018-09-06T15:01:17.691Z,8.97
2018-09-06T15:03:45.289Z,8.93
2018-09-06T15:06:12.900Z,8.50
2018-09-06T15:08:40.476Z,8.77
2018-09-06T15:11:09.095Z,8.40
2018-09-06T15:13:36.728Z,9.50
2018-09-06T15:16:04.407Z,8.40
2018-09-06T15:18:31.989Z,8.70
2018-09-06T15:20:59.588Z,9.40
2018-09-06T15:23:27.168Z,8.80
2018-09-06T15:26:01.476Z,8.80
2018-09-06T15:28:29.085Z,8.70
2018-09-06T15:30:56.756Z,8.57
2018-09-06T15:33:24.322Z,9.30
2018-09-06T15:35:51.996Z,8.60
2018-09-06T15:38:19.580Z,8.63
2018-09-06T15:40:47.185Z,9.10
2018-09-06T15:43:14.787Z,8.50
2018-09-06T15:45:42.428Z,8.40
2018-09-06T15:48:09.994Z,8.10
2018-09-06T15:50:37.597Z,8.67
2018-09-06T15:53:05.197Z,8.20
2018-09-06T15:55:32.781Z,8.80
2018-09-06T15:58:00.341Z,8.60
2018-09-06T16:00:27.912Z,8.40
2018-09-06T16:02:55.480Z,9.60
2018-09-06T16:05:23.089Z,10.00
2018-09-06T16:07:50.746Z,8.90
2018-09-06T16:10:18.288Z,10.00
2018-09-06T16:12:45.876Z,8.87
2018-09-06T16:15:13.453Z,8.33
2018-09-06T16:17:41.033Z,9.30
2018-09-06T16:20:08.925Z,9.20
2018-09-06T16:22:36.536Z,9.00
2018-09-06T16:25:04.160Z,9.53
2018-09-06T16:27:31.741Z,9.77
2018-09-06T16:29:59.421Z,9.90
2018-09-06T16:32:26.980Z,9.77
2018-09-06T16:34:54.558Z,9.73
2018-09-06T16:37:22.135Z,8.30
2018-09-06T16:39:50.387Z,8.70
2018-09-06T16:42:17.957Z,9.70
2018-09-06T16:44:45.544Z,10.00
2018-09-06T16:47:13.121Z,9.37
2018-09-06T16:49:40.708Z,10.00
2018-09-06T16:52:08.305Z,10.60
2018-09-06T16:54:36.903Z,10.33
2018-09-06T16:57:04.501Z,10.17
2018-09-06T16:59:32.072Z,10.60
2018-09-06T17:01:59.679Z,9.90
2018-09-06T17:04:27.305Z,10.37
2018-09-06T17:06:54.973Z,9.63
2018-09-06T17:09:22.533Z,10.47
2018-09-06T17:11:50.108Z,10.67
2018-09-06T17:14:18.740Z,11.40
2018-09-06T17:16:46.428Z,11.70
2018-09-06T17:19:14.020Z,10.73
2018-09-06T17:21:41.584Z,11.50
2018-09-06T17:24:09.154Z,10.20
2018-09-06T17:26:36.773Z,10.70
2018-09-06T17:29:04.443Z,12.47
2018-09-06T17:31:32.147Z,10.97
2018-09-06T17:33:59.731Z,13.47
2018-09-06T17:36:27.358Z,13.63
2018-09-06T17:38:54.989Z,12.17
2018-09-06T17:41:22.524Z,12.17
2018-09-06T17:43:50.128Z,12.60
2018-09-06T17:46:17.704Z,11.83
2018-09-06T17:48:45.284Z,12.20
2018-09-06T17:51:12.888Z,11.97
2018-09-06T17:53:40.464Z,12.27
2018-09-06T17:56:08.026Z,10.83
2018-09-06T17:58:35.621Z,13.30
2018-09-06T18:01:40.464Z,12.73
2018-09-06T18:04:08.245Z,11.60
2018-09-06T18:06:35.852Z,12.27
2018-09-06T18:09:09.184Z,12.20
2018-09-06T18:11:36.820Z,12.60
2018-09-06T18:14:05.260Z,12.47
2018-09-06T18:16:32.900Z,11.20
2018-09-06T18:19:00.524Z,13.90
2018-09-06T18:21:28.110Z,12.27
2018-09-06T18:23:56.401Z,12.10
2018-09-06T18:26:24.077Z,11.27
2018-09-06T18:28:51.784Z,11.40
2018-09-06T18:31:19.345Z,10.77
2018-09-06T18:33:46.966Z,10.57
2018-09-06T18:36:14.600Z,11.60
2018-09-06T18:38:42.835Z,10.27
2018-09-06T18:41:10.403Z,9.97
2018-09-06T18:43:38.117Z,9.40
2018-09-06T18:46:06.723Z,10.30
2018-09-06T18:48:34.312Z,9.20
2018-09-06T18:51:01.928Z,9.17
2018-09-06T18:53:29.530Z,8.30
2018-09-06T18:55:57.141Z,8.70
2018-09-06T18:58:24.736Z,9.03
2018-09-06T19:00:52.312Z,8.60
2018-09-06T19:03:20.521Z,7.90
2018-09-06T19:05:48.116Z,8.17
2018-09-06T19:08:15.781Z,8.17
2018-09-06T19:10:43.352Z,8.40
2018-09-06T19:13:10.932Z,7.97
2018-09-06T19:15:38.515Z,7.40
2018-09-06T19:18:05.885Z,8.83
2018-09-06T19:20:33.441Z,8.27
2018-09-06T19:23:01.012Z,7.40
2018-09-06T19:25:28.618Z,7.43
2018-09-06T19:27:56.264Z,7.97
2018-09-06T19:30:23.928Z,7.80
2018-09-06T19:32:51.576Z,7.47
2018-09-06T19:35:19.189Z,8.03
2018-09-06T19:37:46.963Z,7.20
2018-09-06T19:40:14.569Z,8.00
2018-09-06T19:42:42.184Z,9.30
2018-09-06T19:45:10.767Z,9.00
2018-09-06T19:47:38.551Z,7.70
2018-09-06T19:50:06.157Z,8.67
2018-09-06T19:52:33.749Z,10.10
2018-09-06T19:55:01.317Z,10.40
2018-09-06T19:57:28.936Z,9.40
2018-09-06T19:59:56.628Z,8.90
2018-09-06T20:02:24.269Z,9.57
2018-09-06T20:04:53.624Z,7.60
2018-09-06T20:07:21.273Z,8.00
2018-09-06T20:09:48.881Z,6.20
2018-09-06T20:12:17.504Z,6.47
2018-09-06T20:14:45.144Z,7.60
2018-09-06T20:17:13.004Z,8.00
2018-09-06T20:19:40.614Z,7.27
2018-09-06T20:22:09.120Z,6.40
2018-09-06T20:24:36.679Z,7.50
2018-09-06T20:27:04.388Z,7.40
2018-09-06T20:29:31.968Z,6.77
2018-09-06T20:31:59.566Z,6.03
2018-09-06T20:34:27.185Z,5.47
2018-09-06T20:36:54.973Z,5.60
2018-09-06T20:39:22.525Z,4.17
2018-09-06T20:41:50.315Z,4.50
2018-09-06T20:44:17.856Z,3.90
2018-09-06T20:46:45.485Z,4.90
2018-09-06T20:49:13.079Z,3.97
2018-09-06T20:51:40.729Z,4.37
2018-09-06T20:54:08.401Z,4.07
2018-09-06T20:56:36.031Z,4.30
2018-09-06T20:59:03.632Z,5.00
2018-09-06T21:01:31.229Z,5.57
2018-09-06T21:03:58.805Z,5.00
2018-09-06T21:06:26.436Z,4.37
2018-09-06T21:08:54.032Z,4.80
2018-09-06T21:11:21.723Z,3.87
2018-09-06T21:13:49.308Z,4.70
2018-09-06T21:16:17.855Z,4.07
2018-09-06T21:18:45.412Z,4.40
2018-09-06T21:21:15.056Z,5.00
2018-09-06T21:23:42.629Z,5.63
2018-09-06T21:26:10.200Z,4.90
2018-09-06T21:28:38.489Z,4.30
2018-09-06T21:31:06.205Z,4.63
2018-09-06T21:33:33.770Z,6.07
2018-09-06T21:36:01.401Z,5.50
2018-09-06T21:38:28.973Z,4.80
2018-09-06T21:40:56.549Z,4.80
2018-09-06T21:43:24.981Z,4.50
2018-09-06T21:45:52.611Z,4.47
2018-09-06T21:48:20.785Z,4.23
2018-09-06T21:50:48.999Z,3.73
2018-09-06T21:53:16.568Z,4.20
2018-09-06T21:55:44.168Z,4.40
2018-09-06T21:58:11.732Z,3.80
2018-09-06T22:00:39.513Z,4.87
2018-09-06T22:03:12.756Z,4.93
2018-09-06T22:05:40.377Z,4.67
2018-09-06T22:08:07.943Z,4.73
2018-09-06T22:10:35.546Z,4.53
2018-09-06T22:13:03.172Z,3.23
2018-09-06T22:15:30.833Z,4.10
2018-09-06T22:17:58.458Z,4.80
2018-09-06T22:20:26.093Z,4.27
2018-09-06T22:22:53.717Z,4.23
2018-09-06T22:25:21.317Z,4.50
2018-09-06T22:27:48.919Z,3.73
2018-09-06T22:30:16.607Z,4.33
2018-09-06T22:32:44.339Z,5.63
2018-09-06T22:35:11.984Z,5.00
2018-09-06T22:37:39.564Z,5.03
2018-09-06T22:40:07.214Z,3.80
2018-09-06T22:42:34.958Z,4.70
2018-09-06T22:45:02.617Z,4.10
2018-09-06T22:47:30.826Z,4.20
2018-09-06T22:49:58.484Z,3.93
2018-09-06T22:52:26.152Z,4.50
2018-09-06T22:54:53.892Z,4.23
2018-09-06T22:57:21.512Z,4.13
2018-09-06T22:59:49.121Z,4.47
2018-09-06T23:02:16.704Z,4.63
2018-09-06T23:04:44.331Z,4.90
2018-09-06T23:07:11.978Z,3.60
2018-09-06T23:09:39.573Z,5.10
2018-09-06T23:12:07.144Z,4.50
2018-09-06T23:14:34.773Z,3.83
2018-09-06T23:17:02.377Z,3.80
2018-09-06T23:19:29.952Z,3.60
2018-09-06T23:21:57.576Z,4.30
2018-09-06T23:24:25.228Z,4.07
2018-09-06T23:26:52.882Z,5.00
2018-09-06T23:29:20.491Z,4.07
2018-09-06T23:31:48.072Z,3.97
2018-09-06T23:34:15.653Z,5.07
2018-09-06T23:36:43.257Z,4.47
2018-09-06T23:39:10.853Z,4.57
2018-09-06T23:41:38.431Z,4.40
2018-09-06T23:44:06.137Z,4.00
2018-09-06T23:46:33.729Z,3.80
2018-09-06T23:49:01.317Z,4.63
2018-09-06T23:51:28.953Z,3.80
2018-09-06T23:53:56.556Z,4.10
2018-09-06T23:56:24.200Z,3.80
2018-09-06T23:58:51.821Z,3.83
